Time;durP1;ratioP1;P1;durP2;ratioP2;P2;SDS_P1;SDS_P2;PMS_P1;PMS_P2;Temp;Humidity;BMP_temperature;BMP_pressure;BME280_temperature;BME280_humidity;BME280_pressure;Samples;Min_cycle;Max_cycle;Signal;HPM_P1;HPM_P2
2021/09/04 00:02:21;;;;;;;60.75;30.27;;;14.30;99.90;;;;;;5073153;28;20082;-70
2021/09/04 00:04:47;;;;;;;57.75;30.35;;;14.30;99.90;;;;;;5072364;28;20025;-71
2021/09/04 00:07:12;;;;;;;60.97;31.15;;;14.20;99.90;;;;;;5072297;28;20024;-70
2021/09/04 00:09:38;;;;;;;61.13;32.53;;;14.20;99.90;;;;;;5071936;28;20031;-70
2021/09/04 00:12:04;;;;;;;60.28;31.52;;;14.20;99.90;;;;;;5073454;28;20060;-71
2021/09/04 00:14:29;;;;;;;61.83;32.15;;;14.10;99.90;;;;;;5072689;28;20102;-71
2021/09/04 00:16:55;;;;;;;67.07;32.42;;;14.10;99.90;;;;;;5073396;28;20412;-71
2021/09/04 00:19:20;;;;;;;64.55;31.48;;;14.10;99.90;;;;;;5073638;28;20055;-70
2021/09/04 00:21:46;;;;;;;63.05;32.00;;;14.00;99.90;;;;;;5073544;28;20033;-71
2021/09/04 00:24:12;;;;;;;65.07;33.33;;;14.00;99.90;;;;;;5072334;28;20366;-70
2021/09/04 00:26:37;;;;;;;61.95;31.30;;;14.00;99.90;;;;;;5073332;28;20102;-71
2021/09/04 00:29:03;;;;;;;62.67;30.88;;;14.00;99.90;;;;;;5073294;28;20024;-70
2021/09/04 00:31:28;;;;;;;61.13;31.08;;;14.00;99.90;;;;;;5073541;28;20458;-71
2021/09/04 00:33:54;;;;;;;55.53;31.33;;;13.90;99.90;;;;;;5073493;28;20354;-70
2021/09/04 00:36:20;;;;;;;65.75;32.20;;;13.90;99.90;;;;;;5071673;28;20032;-70
2021/09/04 00:38:46;;;;;;;63.03;31.88;;;13.80;99.90;;;;;;5073441;28;20428;-70
2021/09/04 00:41:11;;;;;;;66.10;32.47;;;13.80;99.90;;;;;;5072781;28;20378;-70
2021/09/04 00:43:37;;;;;;;65.78;32.38;;;13.80;99.90;;;;;;5072871;28;20032;-70
2021/09/04 00:46:07;;;;;;;58.15;30.00;;;13.70;99.90;;;;;;5073110;28;20074;-71
2021/09/04 00:48:33;;;;;;;62.05;32.20;;;13.70;99.90;;;;;;5072676;28;20059;-70
2021/09/04 00:50:58;;;;;;;57.67;30.88;;;13.70;99.90;;;;;;5076663;28;20056;-70
2021/09/04 00:53:24;;;;;;;67.78;31.70;;;13.60;99.90;;;;;;5075661;28;20454;-71
2021/09/04 00:55:50;;;;;;;66.22;32.47;;;13.60;99.90;;;;;;5076555;28;20032;-70
2021/09/04 00:58:15;;;;;;;61.33;31.63;;;13.60;99.90;;;;;;5076824;28;20477;-70
2021/09/04 01:00:41;;;;;;;57.00;30.75;;;13.50;99.90;;;;;;5075544;28;20119;-70
2021/09/04 01:03:06;;;;;;;58.88;31.48;;;13.50;99.90;;;;;;5075241;28;20473;-70
2021/09/04 01:05:32;;;;;;;60.05;29.80;;;13.50;99.90;;;;;;5076685;28;20043;-70
2021/09/04 01:07:58;;;;;;;64.35;30.70;;;13.40;99.90;;;;;;5075241;28;20027;-70
2021/09/04 01:10:26;;;;;;;59.03;29.52;;;13.40;99.90;;;;;;5075432;28;20031;-70
2021/09/04 01:12:51;;;;;;;56.78;29.77;;;13.30;99.90;;;;;;5075393;28;20028;-71
2021/09/04 01:15:19;;;;;;;60.72;30.13;;;13.40;99.90;;;;;;5076267;28;20028;-70
2021/09/04 01:17:45;;;;;;;60.80;29.67;;;13.30;99.90;;;;;;5075074;28;20021;-70
2021/09/04 01:20:11;;;;;;;55.35;29.30;;;13.20;99.90;;;;;;5074631;28;20434;-71
2021/09/04 01:22:37;;;;;;;61.22;29.98;;;13.20;99.90;;;;;;5076344;28;20074;-70
2021/09/04 01:25:06;;;;;;;60.88;29.90;;;13.20;99.90;;;;;;5076345;28;20027;-70
2021/09/04 01:27:33;;;;;;;58.28;29.75;;;13.20;99.90;;;;;;5076253;28;20025;-70
2021/09/04 01:29:59;;;;;;;64.57;31.95;;;13.10;99.90;;;;;;5076224;28;20020;-70
2021/09/04 01:32:25;;;;;;;56.33;29.63;;;13.10;99.90;;;;;;5076220;28;20354;-71
2021/09/04 01:34:50;;;;;;;61.97;30.83;;;13.10;99.90;;;;;;5074723;28;20028;-70
2021/09/04 01:37:16;;;;;;;59.53;30.98;;;13.00;99.90;;;;;;5074960;28;20064;-70
2021/09/04 01:39:41;;;;;;;63.75;30.90;;;13.00;99.90;;;;;;5076048;28;20043;-70
2021/09/04 01:42:07;;;;;;;65.38;31.30;;;12.90;99.90;;;;;;5075232;28;20055;-70
2021/09/04 01:44:32;;;;;;;60.78;29.73;;;12.90;99.90;;;;;;5075702;28;20028;-70
2021/09/04 01:46:58;;;;;;;65.75;30.70;;;13.00;99.90;;;;;;5075945;28;20021;-70
2021/09/04 01:49:24;;;;;;;65.78;30.95;;;12.90;99.90;;;;;;5075608;28;20379;-70
2021/09/04 01:51:50;;;;;;;63.80;30.98;;;12.90;99.90;;;;;;5075837;28;20032;-70
2021/09/04 01:54:15;;;;;;;63.03;32.63;;;12.80;99.90;;;;;;5075814;28;20033;-70
2021/09/04 01:56:41;;;;;;;59.47;30.38;;;12.80;99.90;;;;;;5075458;28;20024;-70
2021/09/04 01:59:06;;;;;;;70.82;32.63;;;12.80;99.90;;;;;;5075166;28;20032;-70
2021/09/04 02:01:32;;;;;;;71.72;32.22;;;12.70;99.90;;;;;;5074121;28;20035;-70
2021/09/04 02:03:57;;;;;;;71.68;33.33;;;12.70;99.90;;;;;;5075589;28;20070;-70
2021/09/04 02:06:23;;;;;;;77.30;32.97;;;12.70;99.90;;;;;;5075002;28;20020;-70
2021/09/04 02:08:48;;;;;;;73.65;33.72;;;12.70;99.90;;;;;;5075506;28;20111;-70
2021/09/04 02:11:14;;;;;;;80.65;34.13;;;12.70;99.90;;;;;;5073642;28;20031;-70
2021/09/04 02:13:39;;;;;;;81.10;35.83;;;12.60;99.90;;;;;;5075396;28;20115;-71
2021/09/04 02:16:05;;;;;;;75.90;35.15;;;12.70;99.90;;;;;;5075354;28;20033;-70
2021/09/04 02:18:33;;;;;;;77.72;35.08;;;12.70;99.90;;;;;;5073871;28;20029;-70
2021/09/04 02:20:59;;;;;;;80.57;35.50;;;12.70;99.90;;;;;;5075214;28;20508;-70
2021/09/04 02:23:25;;;;;;;87.03;37.28;;;12.70;99.90;;;;;;5074935;28;20052;-70
2021/09/04 02:25:50;;;;;;;87.25;38.25;;;12.70;99.90;;;;;;5073979;28;20024;-71
2021/09/04 02:28:16;;;;;;;91.35;39.42;;;12.80;99.90;;;;;;5075118;28;20029;-70
2021/09/04 02:30:43;;;;;;;99.18;40.05;;;12.70;99.90;;;;;;5073285;28;20017;-71
2021/09/04 02:33:08;;;;;;;106.53;42.05;;;12.70;99.90;;;;;;5074457;28;20033;-70
2021/09/04 02:35:34;;;;;;;94.07;40.50;;;12.70;99.90;;;;;;5074961;28;20032;-71
2021/09/04 02:38:01;;;;;;;101.55;42.75;;;12.70;99.90;;;;;;5073733;28;20032;-70
2021/09/04 02:40:27;;;;;;;102.78;43.90;;;12.70;99.90;;;;;;5074314;28;20401;-70
2021/09/04 02:42:52;;;;;;;105.10;43.03;;;12.60;99.90;;;;;;5074754;28;20025;-70
2021/09/04 02:45:18;;;;;;;99.22;43.33;;;12.70;99.90;;;;;;5073351;28;20032;-70
2021/09/04 02:47:43;;;;;;;104.78;43.25;;;12.70;99.90;;;;;;5074752;28;20074;-70
2021/09/04 02:50:09;;;;;;;104.50;42.92;;;12.70;99.90;;;;;;5074702;28;20466;-70
2021/09/04 02:52:35;;;;;;;114.57;45.85;;;12.60;99.90;;;;;;5074663;28;20036;-70
2021/09/04 02:55:00;;;;;;;115.15;45.65;;;12.60;99.90;;;;;;5074584;28;20458;-70
2021/09/04 02:57:26;;;;;;;121.45;47.28;;;12.60;99.90;;;;;;5072775;28;20024;-70
2021/09/04 02:59:51;;;;;;;114.90;44.13;;;12.70;99.90;;;;;;5073568;28;20406;-70
2021/09/04 03:02:17;;;;;;;121.20;44.53;;;12.60;99.90;;;;;;5072639;28;20447;-70
2021/09/04 03:04:42;;;;;;;114.68;44.28;;;12.60;99.90;;;;;;5073277;28;20035;-70
2021/09/04 03:07:08;;;;;;;114.45;45.33;;;12.60;99.90;;;;;;5072987;28;20107;-70
2021/09/04 03:09:34;;;;;;;118.45;45.97;;;12.60;99.90;;;;;;5074104;28;20056;-70
2021/09/04 03:12:02;;;;;;;114.13;45.70;;;12.60;99.90;;;;;;5073664;28;20032;-70
2021/09/04 03:14:28;;;;;;;116.32;45.70;;;12.60;99.90;;;;;;5074323;28;20021;-70
2021/09/04 03:16:53;;;;;;;116.03;45.20;;;12.60;99.90;;;;;;5072574;28;20174;-70
2021/09/04 03:19:19;;;;;;;125.70;47.58;;;12.50;99.90;;;;;;5074270;28;20492;-70
2021/09/04 03:21:44;;;;;;;128.60;46.45;;;12.60;99.90;;;;;;5074144;28;20043;-70
2021/09/04 03:24:10;;;;;;;112.80;44.70;;;12.60;99.90;;;;;;5074197;28;20024;-70
2021/09/04 03:26:35;;;;;;;133.27;48.40;;;12.60;99.90;;;;;;5074178;28;20051;-70
2021/09/04 03:29:01;;;;;;;117.60;47.20;;;12.60;99.90;;;;;;5073159;28;20028;-70
2021/09/04 03:31:27;;;;;;;112.18;44.78;;;12.60;99.90;;;;;;5072883;28;20462;-70
2021/09/04 03:33:52;;;;;;;125.40;44.85;;;12.70;99.90;;;;;;5072290;28;20462;-70
2021/09/04 03:36:18;;;;;;;115.13;46.05;;;12.60;99.90;;;;;;5072882;28;20028;-70
2021/09/04 03:38:44;;;;;;;113.88;46.97;;;12.70;99.90;;;;;;5072218;28;20029;-70
2021/09/04 03:41:09;;;;;;;111.82;46.08;;;12.60;99.90;;;;;;5073602;28;20391;-70
2021/09/04 03:43:35;;;;;;;118.47;48.42;;;12.70;99.90;;;;;;5073699;28;20074;-70
2021/09/04 03:46:01;;;;;;;119.43;46.30;;;12.70;99.90;;;;;;5073973;28;20050;-70
2021/09/04 03:48:27;;;;;;;123.95;47.15;;;12.70;99.90;;;;;;5072791;28;20025;-70
2021/09/04 03:50:52;;;;;;;122.70;47.53;;;12.70;99.90;;;;;;5073934;28;20025;-71
2021/09/04 03:53:18;;;;;;;116.82;47.63;;;12.70;99.90;;;;;;5073897;28;20025;-70
2021/09/04 03:55:44;;;;;;;114.40;46.45;;;12.80;99.90;;;;;;5072608;28;20025;-70
2021/09/04 03:58:09;;;;;;;124.43;48.92;;;12.70;99.90;;;;;;5072083;28;20123;-70
2021/09/04 04:00:35;;;;;;;115.53;46.45;;;12.80;99.90;;;;;;5072091;28;20035;-70
2021/09/04 04:03:00;;;;;;;112.25;46.83;;;12.80;99.90;;;;;;5073741;28;20116;-70
2021/09/04 04:05:26;;;;;;;120.35;46.55;;;12.80;99.90;;;;;;5073240;28;20056;-70
2021/09/04 04:07:51;;;;;;;107.30;43.88;;;12.80;99.90;;;;;;5073508;28;20059;-70
2021/09/04 04:10:17;;;;;;;105.28;46.63;;;12.80;99.90;;;;;;5073789;28;20453;-70
2021/09/04 04:12:42;;;;;;;112.13;47.13;;;12.80;99.90;;;;;;5073439;28;20485;-70
2021/09/04 04:15:09;;;;;;;145.85;48.47;;;12.80;99.90;;;;;;5073763;28;20056;-70
2021/09/04 04:17:34;;;;;;;126.72;48.00;;;12.70;99.90;;;;;;5071865;28;20021;-70
2021/09/04 04:20:00;;;;;;;113.95;45.92;;;12.70;99.90;;;;;;5073674;28;20035;-70
2021/09/04 04:22:25;;;;;;;118.65;46.47;;;12.70;99.90;;;;;;5055244;28;20031;-70
2021/09/04 04:24:51;;;;;;;147.52;48.95;;;12.80;99.90;;;;;;5076138;28;20081;-70
2021/09/04 04:27:16;;;;;;;123.15;48.88;;;12.70;99.90;;;;;;5077144;28;20096;-70
2021/09/04 04:29:42;;;;;;;132.20;48.25;;;12.70;99.90;;;;;;5076814;28;20474;-71
2021/09/04 04:32:07;;;;;;;120.60;50.55;;;12.70;99.90;;;;;;5077390;28;20462;-70
2021/09/04 04:34:33;;;;;;;121.15;49.15;;;12.70;99.90;;;;;;5076959;28;20032;-70
2021/09/04 04:36:58;;;;;;;139.25;51.72;;;12.70;99.90;;;;;;5076714;28;20032;-70
2021/09/04 04:39:24;;;;;;;135.32;52.15;;;12.70;99.90;;;;;;5077202;28;20029;-70
2021/09/04 04:41:49;;;;;;;127.20;51.25;;;12.80;99.90;;;;;;5076555;28;20394;-71
2021/09/04 04:44:15;;;;;;;127.50;50.55;;;12.80;99.90;;;;;;5076851;28;20039;-70
2021/09/04 04:46:40;;;;;;;140.77;53.67;;;12.80;99.90;;;;;;5076801;28;20031;-70
2021/09/04 04:49:06;;;;;;;135.23;52.38;;;12.80;99.90;;;;;;5075854;28;20365;-70
2021/09/04 04:51:31;;;;;;;137.48;52.67;;;12.90;99.90;;;;;;5076702;28;20028;-70
2021/09/04 04:53:57;;;;;;;132.00;52.22;;;12.80;99.90;;;;;;5075781;28;20351;-70
2021/09/04 04:56:23;;;;;;;139.77;52.35;;;12.80;99.90;;;;;;5076599;28;20090;-70
2021/09/04 04:58:49;;;;;;;134.88;51.65;;;12.80;99.90;;;;;;5076617;28;20093;-70
2021/09/04 05:01:14;;;;;;;137.50;52.38;;;12.80;99.90;;;;;;5074954;28;20494;-70
2021/09/04 05:03:40;;;;;;;134.18;50.55;;;12.80;99.90;;;;;;5076491;28;20025;-70
2021/09/04 05:06:05;;;;;;;155.40;50.53;;;12.90;99.90;;;;;;5076745;28;20111;-70
2021/09/04 05:08:31;;;;;;;129.10;48.45;;;12.80;99.90;;;;;;5074955;28;20024;-70
2021/09/04 05:10:56;;;;;;;131.73;50.63;;;12.80;99.90;;;;;;5075507;28;20112;-70
2021/09/04 05:13:22;;;;;;;152.88;53.08;;;12.80;99.90;;;;;;5076031;28;20067;-70
2021/09/04 05:15:48;;;;;;;143.77;51.40;;;12.80;99.90;;;;;;5076563;28;20032;-70
2021/09/04 05:18:14;;;;;;;142.63;51.60;;;12.80;99.90;;;;;;5076519;28;20028;-70
2021/09/04 05:20:39;;;;;;;136.18;50.78;;;12.80;99.90;;;;;;5076387;28;20035;-70
2021/09/04 05:23:05;;;;;;;146.70;50.78;;;12.80;99.90;;;;;;5076348;28;20078;-70
2021/09/04 05:25:30;;;;;;;158.35;51.72;;;12.80;99.90;;;;;;5075815;28;20016;-70
2021/09/04 05:27:56;;;;;;;140.32;50.58;;;12.80;99.90;;;;;;5076326;28;20020;-70
2021/09/04 05:30:21;;;;;;;148.70;49.75;;;12.80;99.90;;;;;;5076271;28;20025;-70
2021/09/04 05:32:47;;;;;;;139.80;50.55;;;12.80;99.90;;;;;;5076242;28;20064;-70
2021/09/04 05:35:12;;;;;;;124.72;47.60;;;12.90;99.90;;;;;;5075290;28;20179;-70
2021/09/04 05:37:38;;;;;;;126.97;47.92;;;12.90;99.90;;;;;;5076122;28;20024;-70
2021/09/04 05:40:04;;;;;;;132.68;48.33;;;12.90;99.90;;;;;;5075555;28;20021;-70
2021/09/04 05:42:30;;;;;;;131.80;49.13;;;12.90;99.90;;;;;;5074166;28;20040;-70
2021/09/04 05:44:56;;;;;;;133.88;48.88;;;12.80;99.90;;;;;;5075996;28;20107;-70
2021/09/04 05:47:21;;;;;;;126.32;47.90;;;12.80;99.90;;;;;;5075888;28;20021;-70
2021/09/04 05:49:47;;;;;;;122.63;47.92;;;12.80;99.90;;;;;;5075877;28;20025;-70
2021/09/04 05:52:12;;;;;;;128.05;47.42;;;12.90;99.90;;;;;;5075190;28;20040;-70
2021/09/04 05:54:38;;;;;;;129.52;48.20;;;13.00;99.90;;;;;;5075471;28;20040;-70
2021/09/04 05:57:03;;;;;;;124.30;47.75;;;13.00;99.90;;;;;;5074274;28;20462;-70
2021/09/04 05:59:29;;;;;;;122.13;47.05;;;13.00;99.90;;;;;;5075717;28;20029;-70
2021/09/04 06:01:54;;;;;;;117.70;45.25;;;13.10;99.90;;;;;;5075574;28;20016;-70
2021/09/04 06:04:20;;;;;;;120.80;45.30;;;13.00;99.90;;;;;;5075344;28;20031;-70
2021/09/04 06:06:45;;;;;;;122.00;46.05;;;13.00;99.90;;;;;;5075222;28;20029;-70
2021/09/04 06:09:11;;;;;;;123.13;46.28;;;13.00;99.90;;;;;;5075515;28;20108;-70
2021/09/04 06:11:36;;;;;;;139.05;46.38;;;12.90;99.90;;;;;;5073935;28;20086;-70
2021/09/04 06:14:02;;;;;;;128.95;45.67;;;12.90;99.90;;;;;;5075387;28;20029;-70
2021/09/04 06:16:27;;;;;;;125.28;42.85;;;12.90;99.90;;;;;;5074819;28;20036;-70
2021/09/04 06:18:53;;;;;;;125.95;44.35;;;12.90;99.90;;;;;;5075020;28;20033;-70
2021/09/04 06:21:19;;;;;;;121.47;43.60;;;13.00;99.90;;;;;;5075195;28;20032;-70
2021/09/04 06:23:44;;;;;;;120.05;44.05;;;13.10;99.90;;;;;;5075225;28;20458;-70
2021/09/04 06:26:10;;;;;;;120.57;45.80;;;13.20;99.90;;;;;;5075139;28;20347;-70
2021/09/04 06:28:36;;;;;;;123.90;45.00;;;13.10;99.90;;;;;;5075089;28;20035;-70
2021/09/04 06:31:01;;;;;;;119.72;44.78;;;13.20;99.90;;;;;;5075022;28;20028;-70
2021/09/04 06:33:27;;;;;;;123.15;46.22;;;13.10;99.90;;;;;;5074696;28;20020;-70
2021/09/04 06:35:52;;;;;;;122.60;47.03;;;13.20;99.90;;;;;;5074957;28;20103;-70
2021/09/04 06:38:18;;;;;;;135.93;47.45;;;13.20;99.90;;;;;;5056660;28;20528;-70
2021/09/04 06:40:44;;;;;;;123.80;45.95;;;13.30;99.90;;;;;;5074576;28;20071;-70
2021/09/04 06:43:09;;;;;;;121.13;45.28;;;13.30;99.90;;;;;;5074091;28;20025;-70
2021/09/04 06:45:35;;;;;;;115.60;44.08;;;13.30;99.90;;;;;;5074756;28;20024;-70
2021/09/04 06:48:00;;;;;;;115.50;45.92;;;13.20;99.90;;;;;;5073781;28;20374;-70
2021/09/04 06:50:26;;;;;;;118.00;44.35;;;13.20;99.90;;;;;;5074633;28;20021;-70
2021/09/04 06:52:52;;;;;;;114.65;43.38;;;13.30;99.90;;;;;;5074086;28;20482;-70
2021/09/04 06:55:18;;;;;;;115.95;44.25;;;13.30;99.90;;;;;;5073167;28;20075;-70
2021/09/04 06:57:44;;;;;;;125.57;48.55;;;13.40;99.90;;;;;;5074560;28;20039;-70
2021/09/04 07:00:10;;;;;;;117.95;46.15;;;13.40;99.90;;;;;;5073978;28;20028;-70
2021/09/04 07:02:36;;;;;;;120.05;46.45;;;13.30;99.90;;;;;;5074411;28;20056;-70
2021/09/04 07:05:03;;;;;;;122.72;46.92;;;13.40;99.90;;;;;;5074205;28;20157;-70
2021/09/04 07:07:28;;;;;;;122.55;45.85;;;13.40;99.90;;;;;;5073004;28;20032;-70
2021/09/04 07:09:54;;;;;;;113.28;42.78;;;13.50;99.90;;;;;;5073764;28;20024;-70
2021/09/04 07:12:20;;;;;;;116.53;45.08;;;13.50;99.90;;;;;;5074041;28;20035;-70
2021/09/04 07:14:46;;;;;;;106.90;43.30;;;13.50;99.90;;;;;;5074342;28;20050;-70
2021/09/04 07:17:11;;;;;;;107.72;43.92;;;13.50;99.90;;;;;;5072482;28;20020;-70
2021/09/04 07:19:37;;;;;;;102.90;43.25;;;13.60;99.90;;;;;;5074235;28;20351;-70
2021/09/04 07:22:02;;;;;;;107.47;42.60;;;13.50;99.90;;;;;;5074135;28;20024;-70
2021/09/04 07:24:28;;;;;;;97.93;40.42;;;13.50;99.90;;;;;;5073885;28;20043;-70
2021/09/04 07:26:54;;;;;;;100.13;42.40;;;13.50;99.90;;;;;;5074146;28;20025;-70
2021/09/04 07:29:19;;;;;;;101.88;42.63;;;13.50;99.90;;;;;;5074024;28;20032;-70
2021/09/04 07:31:45;;;;;;;104.20;42.28;;;13.60;99.90;;;;;;5073950;28;20024;-70
2021/09/04 07:34:10;;;;;;;91.03;39.42;;;13.60;99.90;;;;;;5073690;28;20025;-70
2021/09/04 07:36:36;;;;;;;96.15;40.55;;;13.60;99.90;;;;;;5073775;28;20100;-70
2021/09/04 07:39:01;;;;;;;94.95;40.40;;;13.60;99.90;;;;;;5073965;28;20064;-70
2021/09/04 07:41:27;;;;;;;98.63;42.30;;;13.60;99.90;;;;;;5073399;28;20047;-70
2021/09/04 07:43:52;;;;;;;91.13;38.88;;;13.70;99.90;;;;;;5072499;28;20016;-70
2021/09/04 07:46:18;;;;;;;93.85;40.75;;;13.70;99.90;;;;;;5073372;28;20028;-70
2021/09/04 07:48:43;;;;;;;101.57;40.63;;;13.60;99.90;;;;;;5073556;28;20029;-70
2021/09/04 07:51:09;;;;;;;93.75;42.85;;;13.60;99.90;;;;;;5073863;28;20353;-70
2021/09/04 07:53:34;;;;;;;99.03;40.85;;;13.60;99.90;;;;;;5073917;28;20032;-70
2021/09/04 07:56:00;;;;;;;102.53;43.42;;;13.80;99.90;;;;;;5073829;28;20020;-70
2021/09/04 07:58:25;;;;;;;94.47;43.33;;;13.80;99.90;;;;;;5075535;28;20445;-70
2021/09/04 08:00:51;;;;;;;99.85;42.40;;;13.80;99.90;;;;;;5077793;28;20100;-70
2021/09/04 08:03:17;;;;;;;97.82;40.08;;;13.90;99.90;;;;;;5077166;28;20484;-70
2021/09/04 08:05:42;;;;;;;107.63;44.13;;;13.90;99.90;;;;;;5077518;28;20065;-70
2021/09/04 08:08:08;;;;;;;104.97;44.50;;;13.90;99.90;;;;;;5077714;28;20058;-71
2021/09/04 08:10:33;;;;;;;109.45;45.78;;;14.00;99.90;;;;;;5075942;28;20462;-70
2021/09/04 08:12:59;;;;;;;112.63;44.90;;;14.10;99.90;;;;;;5077789;28;20036;-70
2021/09/04 08:15:24;;;;;;;111.43;43.70;;;13.90;99.90;;;;;;5075794;28;20111;-70
2021/09/04 08:17:50;;;;;;;108.32;43.75;;;14.00;99.90;;;;;;5076093;28;20032;-70
2021/09/04 08:20:16;;;;;;;101.97;42.17;;;14.10;99.90;;;;;;5058982;28;20020;-70
2021/09/04 08:22:42;;;;;;;101.13;42.15;;;14.20;99.90;;;;;;5075809;28;20025;-70
2021/09/04 08:25:08;;;;;;;93.18;40.75;;;14.30;99.90;;;;;;5077342;28;20568;-71
2021/09/04 08:27:33;;;;;;;95.65;40.45;;;14.20;99.90;;;;;;5077231;28;20078;-71
2021/09/04 08:29:59;;;;;;;88.95;41.25;;;14.20;99.90;;;;;;5076719;28;20086;-71
2021/09/04 08:32:24;;;;;;;96.03;41.50;;;14.20;99.90;;;;;;5077287;28;20489;-71
2021/09/04 08:34:50;;;;;;;86.13;39.88;;;14.20;99.90;;;;;;5075747;28;20481;-70
2021/09/04 08:37:16;;;;;;;95.93;43.45;;;14.20;99.90;;;;;;5077169;28;20104;-71
2021/09/04 08:39:42;;;;;;;90.55;39.88;;;14.20;99.90;;;;;;5075961;28;20024;-71
2021/09/04 08:42:08;;;;;;;91.90;41.58;;;14.30;99.90;;;;;;5076268;28;20067;-72
2021/09/04 08:44:34;;;;;;;87.78;39.85;;;14.40;99.90;;;;;;5076640;28;20351;-71
2021/09/04 08:46:59;;;;;;;86.40;39.30;;;14.40;99.90;;;;;;5076888;28;20039;-71
2021/09/04 08:49:27;;;;;;;90.55;40.53;;;14.30;99.90;;;;;;5077000;28;20035;-71
2021/09/04 08:51:53;;;;;;;78.28;36.80;;;14.40;99.90;;;;;;5076724;28;20051;-71
2021/09/04 08:54:19;;;;;;;75.03;36.75;;;14.50;99.90;;;;;;5076443;28;20060;-71
2021/09/04 08:56:44;;;;;;;76.55;36.92;;;14.50;99.90;;;;;;5058210;28;20485;-71
2021/09/04 08:59:10;;;;;;;88.25;40.63;;;14.50;99.90;;;;;;5075587;28;20039;-71
2021/09/04 09:01:45;;;;;;;90.85;40.72;;;14.40;99.90;;;;;;5076147;28;20042;-71
2021/09/04 09:04:15;;;;;;;96.75;41.97;;;14.50;99.90;;;;;;5076803;28;20017;-71
2021/09/04 09:06:41;;;;;;;100.15;43.38;;;14.50;99.90;;;;;;5076463;28;20012;-71
2021/09/04 09:09:16;;;;;;;91.72;43.88;;;14.60;99.90;;;;;;5076014;28;20048;-71
2021/09/04 09:11:42;;;;;;;109.13;47.00;;;14.60;99.90;;;;;;5075179;28;20025;-71
2021/09/04 09:14:07;;;;;;;113.53;48.95;;;14.50;99.90;;;;;;5076547;28;20415;-71
2021/09/04 09:16:33;;;;;;;103.85;48.17;;;14.60;99.90;;;;;;5076474;28;20424;-71
2021/09/04 09:19:04;;;;;;;109.68;48.17;;;14.70;99.90;;;;;;5075001;28;20351;-71
2021/09/04 09:21:38;;;;;;;105.43;46.75;;;14.80;99.90;;;;;;5076057;28;20408;-71
2021/09/04 09:24:10;;;;;;;99.88;48.00;;;14.90;99.90;;;;;;5076127;28;20166;-71
2021/09/04 09:26:46;;;;;;;100.25;48.65;;;15.00;99.90;;;;;;5076103;28;20024;-71
2021/09/04 09:29:32;;;;;;;102.47;46.95;;;14.90;99.90;;;;;;5075734;28;20017;-71
2021/09/04 09:32:01;;;;;;;97.65;44.70;;;14.90;99.90;;;;;;5075249;28;20078;-71
2021/09/04 09:34:27;;;;;;;89.85;42.72;;;15.00;99.90;;;;;;5057945;28;20060;-71
2021/09/04 09:36:57;;;;;;;96.35;46.35;;;15.00;99.90;;;;;;5076156;28;20527;-71
2021/09/04 09:39:27;;;;;;;108.57;51.05;;;15.00;99.90;;;;;;5076118;28;20075;-71
2021/09/04 09:41:54;;;;;;;106.63;50.67;;;15.10;99.90;;;;;;5073937;28;20481;-71
2021/09/04 09:44:21;;;;;;;113.95;51.10;;;15.10;99.90;;;;;;5074536;28;20017;-71
2021/09/04 09:46:49;;;;;;;115.32;51.75;;;15.10;99.90;;;;;;5075989;28;20012;-71
2021/09/04 09:49:14;;;;;;;101.55;47.58;;;15.20;99.90;;;;;;5075871;28;20048;-71
2021/09/04 09:51:40;;;;;;;86.97;43.13;;;15.20;99.90;;;;;;5075837;28;20078;-71
2021/09/04 09:54:07;;;;;;;85.15;41.75;;;15.30;99.90;;;;;;5074040;28;20432;-71
2021/09/04 09:56:33;;;;;;;78.35;41.25;;;15.40;99.90;;;;;;5075766;28;20024;-71
2021/09/04 09:58:59;;;;;;;63.88;36.92;;;15.60;99.90;;;;;;5075733;28;20063;-71
2021/09/04 10:01:25;;;;;;;76.35;36.08;;;15.70;99.90;;;;;;5075304;28;20036;-71
2021/09/04 10:03:53;;;;;;;70.30;36.80;;;15.70;99.90;;;;;;5075365;28;20024;-71
2021/09/04 10:06:18;;;;;;;70.72;36.00;;;15.70;99.90;;;;;;5075531;28;20021;-71
2021/09/04 10:08:44;;;;;;;63.00;34.17;;;15.80;99.90;;;;;;5075179;28;20530;-71
2021/09/04 10:11:10;;;;;;;59.92;33.95;;;16.00;99.90;;;;;;5075420;28;20432;-71
2021/09/04 10:13:36;;;;;;;65.15;34.10;;;16.00;99.90;;;;;;5075453;28;20381;-71
2021/09/04 10:16:01;;;;;;;72.45;36.92;;;16.00;99.90;;;;;;5073930;28;20024;-71
2021/09/04 10:18:28;;;;;;;64.28;32.90;;;15.90;99.90;;;;;;5074170;28;20021;-71
2021/09/04 10:21:10;;;;;;;59.08;32.10;;;16.00;99.90;;;;;;5073043;28;20017;-71
2021/09/04 10:23:47;;;;;;;60.17;33.17;;;16.00;99.90;;;;;;5074025;28;20071;-71
2021/09/04 10:26:35;;;;;;;55.85;31.50;;;16.00;99.90;;;;;;5073335;28;20047;-71
2021/09/04 10:29:21;;;;;;;55.70;31.15;;;16.00;99.90;;;;;;5074497;28;20017;-71
2021/09/04 10:32:03;;;;;;;59.55;33.08;;;16.10;99.90;;;;;;5074899;28;20055;-71
2021/09/04 10:34:45;;;;;;;80.75;40.88;;;16.20;99.90;;;;;;5074347;28;20097;-71
2021/09/04 10:37:17;;;;;;;83.15;43.83;;;16.10;99.90;;;;;;5074908;28;20074;-71
2021/09/04 10:40:03;;;;;;;85.70;44.55;;;16.00;99.90;;;;;;5073647;28;20103;-72
2021/09/04 10:42:30;;;;;;;93.53;46.72;;;16.10;99.90;;;;;;5072926;28;20048;-71
2021/09/04 10:47:56;;;;;;;111.32;55.78;;;16.20;99.90;;;;;;5071612;28;20188;-72
2021/09/04 10:50:24;;;;;;;94.10;50.75;;;16.10;99.90;;;;;;5070974;28;20074;-72
2021/09/04 10:55:30;;;;;;;73.57;40.33;;;16.10;99.90;;;;;;5112167;27;20108;-71
2021/09/04 10:58:06;;;;;;;62.42;35.22;;;16.30;99.90;;;;;;5111334;28;20053;-72
2021/09/04 11:00:37;;;;;;;59.78;34.05;;;16.50;99.90;;;;;;5111806;28;20065;-72
2021/09/04 11:03:06;;;;;;;60.03;32.78;;;16.60;99.90;;;;;;5109892;28;20020;-72
2021/09/04 11:05:40;;;;;;;57.15;29.38;;;16.90;99.90;;;;;;5110260;28;20031;-72
2021/09/04 11:08:09;;;;;;;51.17;29.20;;;16.90;99.90;;;;;;5111415;28;20016;-72
2021/09/04 11:10:36;;;;;;;53.92;30.30;;;16.90;99.90;;;;;;5111635;28;20027;-72
2021/09/04 11:16:28;;;;;;;56.22;33.38;;;17.10;99.90;;;;;;5112216;27;20351;-72
2021/09/04 11:18:55;;;;;;;63.33;36.08;;;17.20;99.90;;;;;;5111300;28;20537;-71
2021/09/04 11:21:21;;;;;;;71.43;38.03;;;17.40;99.90;;;;;;5111439;28;20016;-71
2021/09/04 11:23:49;;;;;;;63.03;35.13;;;17.30;99.90;;;;;;5111428;28;20028;-71
2021/09/04 11:26:14;;;;;;;59.53;33.72;;;17.40;99.90;;;;;;5111409;28;20070;-72
2021/09/04 11:28:40;;;;;;;58.78;35.22;;;17.40;99.90;;;;;;5111666;28;20028;-71
2021/09/04 11:31:05;;;;;;;56.90;33.28;;;17.40;99.90;;;;;;5110212;28;20381;-71
2021/09/04 11:33:31;;;;;;;58.83;34.13;;;17.50;99.90;;;;;;5111514;28;20024;-71
2021/09/04 11:35:57;;;;;;;59.28;32.60;;;17.60;99.90;;;;;;5111289;28;20089;-71
2021/09/04 11:38:24;;;;;;;59.28;34.45;;;17.80;99.90;;;;;;5111494;28;20020;-71
2021/09/04 11:40:51;;;;;;;62.05;36.10;;;17.70;99.90;;;;;;5111545;28;20020;-71
2021/09/04 11:43:23;;;;;;;57.17;35.42;;;17.80;99.90;;;;;;5110353;28;20350;-71
2021/09/04 11:45:59;;;;;;;66.30;38.05;;;18.00;99.90;;;;;;5111379;28;20052;-71
2021/09/04 11:48:27;;;;;;;59.58;37.45;;;17.90;99.90;;;;;;5111330;28;20465;-71
2021/09/04 11:51:02;;;;;;;59.08;36.88;;;18.00;99.90;;;;;;5110624;28;20407;-71
2021/09/04 11:53:27;;;;;;;58.65;36.85;;;18.20;99.90;;;;;;5111272;28;20016;-71
2021/09/04 11:55:53;;;;;;;55.15;35.20;;;18.20;99.90;;;;;;5110940;28;20032;-71
2021/09/04 11:58:18;;;;;;;57.63;36.70;;;18.30;99.90;;;;;;5111121;28;20465;-71
2021/09/04 12:00:44;;;;;;;54.15;34.58;;;18.10;99.90;;;;;;5109925;28;20481;-71
2021/09/04 12:03:12;;;;;;;54.67;34.03;;;18.40;99.90;;;;;;5111013;28;20037;-71
2021/09/04 12:05:40;;;;;;;61.75;39.95;;;18.80;99.90;;;;;;5110752;28;20102;-71
2021/09/04 12:08:07;;;;;;;60.60;38.60;;;18.70;99.90;;;;;;5110974;28;20020;-71
2021/09/04 12:10:35;;;;;;;57.35;34.38;;;19.20;99.90;;;;;;5092157;28;20028;-71
2021/09/04 12:13:04;;;;;;;50.55;30.95;;;19.40;99.90;;;;;;5110876;28;20018;-71
2021/09/04 12:15:31;;;;;;;48.30;28.95;;;19.70;99.90;;;;;;5091827;28;20067;-72
2021/09/04 12:18:01;;;;;;;44.50;27.42;;;19.60;99.90;;;;;;5108942;28;20385;-71
2021/09/04 12:20:31;;;;;;;44.15;25.98;;;19.40;99.90;;;;;;5109700;28;20020;-71
2021/09/04 12:23:00;;;;;;;44.67;26.10;;;19.50;99.90;;;;;;5110750;28;20095;-71
2021/09/04 12:25:29;;;;;;;44.58;26.23;;;19.60;99.90;;;;;;5107496;28;20024;-71
2021/09/04 12:28:00;;;;;;;44.78;27.90;;;20.00;99.90;;;;;;5095282;28;20469;-71
2021/09/04 12:30:26;;;;;;;49.97;29.80;;;19.90;99.90;;;;;;5095676;28;20419;-72